createdAt,value
2018-05-31T00:01:01.238Z,52.80
2018-05-31T00:03:28.205Z,52.80
2018-05-31T00:05:55.146Z,52.80
2018-05-31T00:08:22.115Z,52.80
2018-05-31T00:10:49.082Z,52.80
2018-05-31T00:13:16.797Z,52.80
2018-05-31T00:15:43.770Z,52.80
2018-05-31T00:18:10.732Z,52.80
2018-05-31T00:20:37.675Z,52.80
2018-05-31T00:23:05.399Z,53.20
2018-05-31T00:25:32.345Z,52.80
2018-05-31T00:27:59.326Z,52.80
2018-05-31T00:30:26.305Z,52.80
2018-05-31T00:32:53.261Z,52.80
2018-05-31T00:35:20.211Z,52.80
2018-05-31T00:37:47.311Z,52.70
2018-05-31T00:40:15.773Z,52.70
2018-05-31T00:42:42.720Z,52.80
2018-05-31T00:45:09.682Z,52.80
2018-05-31T00:47:36.746Z,52.80
2018-05-31T00:50:03.724Z,52.80
2018-05-31T00:52:30.680Z,52.80
2018-05-31T00:54:57.633Z,52.80
2018-05-31T00:57:24.729Z,52.80
2018-05-31T00:59:51.676Z,52.80
2018-05-31T01:02:18.643Z,52.80
2018-05-31T01:04:45.597Z,52.80
2018-05-31T01:07:12.703Z,52.80
2018-05-31T01:09:39.660Z,52.70
2018-05-31T01:12:07.390Z,52.80
2018-05-31T01:14:34.335Z,52.70
2018-05-31T01:17:01.308Z,52.80
2018-05-31T01:19:28.265Z,52.80
2018-05-31T01:21:55.986Z,52.80
2018-05-31T01:24:22.957Z,52.70
2018-05-31T01:26:49.905Z,52.80
2018-05-31T01:29:16.849Z,52.80
2018-05-31T01:31:44.566Z,52.70
2018-05-31T01:34:11.523Z,52.70
2018-05-31T01:36:38.498Z,52.70
2018-05-31T01:39:05.455Z,52.70
2018-05-31T01:41:32.421Z,52.70
2018-05-31T01:43:59.384Z,52.60
2018-05-31T01:46:26.488Z,52.70
2018-05-31T01:48:53.439Z,52.60
2018-05-31T01:51:21.159Z,53.40
2018-05-31T01:53:48.120Z,52.60
2018-05-31T01:56:15.090Z,52.60
2018-05-31T01:58:42.048Z,52.70
2018-05-31T02:01:09.777Z,52.70
2018-05-31T02:03:36.738Z,52.70
2018-05-31T02:06:03.894Z,52.70
2018-05-31T02:08:30.858Z,52.70
2018-05-31T02:10:58.590Z,52.70
2018-05-31T02:13:25.541Z,52.70
2018-05-31T02:15:52.497Z,52.60
2018-05-31T02:18:19.462Z,52.60
2018-05-31T02:20:47.181Z,52.60
2018-05-31T02:23:14.138Z,52.60
2018-05-31T02:25:41.090Z,52.60
2018-05-31T02:28:08.041Z,52.60
2018-05-31T02:30:34.989Z,52.60
2018-05-31T02:33:01.946Z,53.10
2018-05-31T02:35:29.672Z,52.60
2018-05-31T02:37:56.752Z,52.60
2018-05-31T02:40:23.690Z,52.60
2018-05-31T02:42:50.639Z,52.60
2018-05-31T02:45:17.588Z,52.60
2018-05-31T02:47:45.339Z,52.20
2018-05-31T02:50:12.291Z,52.60
2018-05-31T02:52:39.239Z,52.50
2018-05-31T02:55:07.773Z,52.60
2018-05-31T02:57:34.762Z,52.60
2018-05-31T03:00:02.481Z,52.50
2018-05-31T03:02:29.439Z,52.50
2018-05-31T03:04:56.400Z,52.50
2018-05-31T03:07:23.365Z,52.50
2018-05-31T03:09:50.315Z,52.50
2018-05-31T03:12:18.038Z,52.70
2018-05-31T03:14:45.009Z,52.50
2018-05-31T03:17:12.710Z,52.50
2018-05-31T03:19:39.718Z,52.50
2018-05-31T03:22:06.699Z,52.50
2018-05-31T03:24:33.657Z,52.50
2018-05-31T03:27:00.767Z,52.50
2018-05-31T03:29:28.474Z,52.50
2018-05-31T03:31:55.449Z,52.40
2018-05-31T03:34:22.412Z,52.50
2018-05-31T03:36:49.581Z,52.50
2018-05-31T03:39:16.539Z,52.40
2018-05-31T03:41:44.269Z,52.50
2018-05-31T03:44:11.218Z,52.50
2018-05-31T03:46:38.402Z,52.40
2018-05-31T03:49:05.339Z,52.40
2018-05-31T03:51:33.060Z,52.50
2018-05-31T03:54:00.018Z,52.50
2018-05-31T03:56:27.183Z,52.40
2018-05-31T03:58:54.131Z,52.40
2018-05-31T04:01:21.863Z,52.50
2018-05-31T04:03:48.808Z,52.40
2018-05-31T04:06:15.782Z,52.40
2018-05-31T04:08:42.743Z,52.40
2018-05-31T04:11:10.462Z,53.00
2018-05-31T04:13:37.424Z,52.40
2018-05-31T04:16:04.381Z,52.40
2018-05-31T04:18:32.834Z,52.40
2018-05-31T04:20:59.799Z,52.40
2018-05-31T04:23:26.781Z,52.40
2018-05-31T04:25:53.720Z,52.30
2018-05-31T04:28:21.435Z,52.40
2018-05-31T04:30:48.400Z,52.30
2018-05-31T04:33:15.355Z,52.30
2018-05-31T04:35:42.310Z,52.30
2018-05-31T04:38:10.065Z,52.30
2018-05-31T04:40:37.791Z,52.30
2018-05-31T04:43:04.739Z,52.30
2018-05-31T04:45:31.700Z,52.30
2018-05-31T04:47:59.279Z,52.30
2018-05-31T04:50:26.228Z,52.30
2018-05-31T04:52:53.173Z,52.30
2018-05-31T04:55:20.127Z,52.30
2018-05-31T04:57:47.263Z,52.40
2018-05-31T05:00:14.253Z,54.00
2018-05-31T05:02:42.061Z,56.60
2018-05-31T05:05:09.005Z,56.60
2018-05-31T05:07:36.078Z,57.10
2018-05-31T05:10:03.782Z,57.90
2018-05-31T05:12:30.746Z,57.90
2018-05-31T05:14:57.723Z,58.20
2018-05-31T05:17:24.697Z,58.00
2018-05-31T05:19:51.642Z,57.20
2018-05-31T05:22:19.364Z,57.70
2018-05-31T05:24:46.332Z,57.70
2018-05-31T05:27:14.093Z,58.70
2018-05-31T05:29:41.055Z,58.70
2018-05-31T05:32:08.800Z,59.10
2018-05-31T05:34:35.722Z,59.00
2018-05-31T05:37:02.700Z,59.60
2018-05-31T05:39:29.640Z,59.30
2018-05-31T05:41:56.596Z,59.20
2018-05-31T05:44:23.556Z,58.90
2018-05-31T05:46:50.678Z,59.40
2018-05-31T05:49:18.411Z,59.40
2018-05-31T05:51:45.355Z,59.40
2018-05-31T05:54:12.339Z,59.40
2018-05-31T05:56:39.521Z,60.60
2018-05-31T05:59:06.496Z,59.50
2018-05-31T06:01:33.483Z,58.40
2018-05-31T06:04:00.427Z,57.10
2018-05-31T06:06:27.471Z,56.40
2018-05-31T06:08:54.423Z,56.00
2018-05-31T06:11:22.130Z,55.70
2018-05-31T06:13:49.089Z,55.60
2018-05-31T06:16:16.067Z,55.40
2018-05-31T06:18:43.077Z,55.30
2018-05-31T06:21:11.053Z,55.20
2018-05-31T06:23:38.001Z,55.10
2018-05-31T06:26:05.078Z,55.20
2018-05-31T06:28:32.031Z,55.10
2018-05-31T06:30:59.123Z,55.00
2018-05-31T06:33:26.080Z,54.80
2018-05-31T06:35:53.051Z,54.60
2018-05-31T06:38:19.999Z,54.50
2018-05-31T06:40:46.960Z,54.70
2018-05-31T06:43:13.911Z,54.70
2018-05-31T06:45:41.624Z,54.70
2018-05-31T06:48:08.583Z,54.70
2018-05-31T06:50:35.530Z,54.60
2018-05-31T06:53:02.495Z,54.60
2018-05-31T06:55:29.444Z,54.60
2018-05-31T06:57:56.499Z,54.50
2018-05-31T07:00:23.447Z,54.40
2018-05-31T07:02:51.174Z,54.30
2018-05-31T07:05:18.135Z,54.20
2018-05-31T07:07:45.105Z,54.10
2018-05-31T07:10:12.060Z,54.00
2018-05-31T07:12:39.802Z,54.00
2018-05-31T07:15:06.760Z,53.90
2018-05-31T07:17:34.101Z,53.80
2018-05-31T07:20:01.051Z,53.90
2018-05-31T07:22:28.006Z,53.90
2018-05-31T07:24:54.965Z,53.90
2018-05-31T07:27:22.709Z,54.10
2018-05-31T07:29:49.664Z,54.10
2018-05-31T07:32:17.995Z,54.00
2018-05-31T07:34:44.983Z,54.00
2018-05-31T07:37:12.128Z,54.00
2018-05-31T07:39:39.081Z,53.90
2018-05-31T07:42:06.801Z,53.90
2018-05-31T07:44:33.773Z,53.90
2018-05-31T07:47:00.723Z,53.80
2018-05-31T07:49:27.674Z,53.80
2018-05-31T07:51:54.623Z,53.80
2018-05-31T07:54:21.573Z,53.80
2018-05-31T07:56:49.322Z,53.80
2018-05-31T07:59:16.289Z,53.80
2018-05-31T08:01:44.000Z,53.80
2018-05-31T08:04:10.954Z,54.40
2018-05-31T08:06:37.956Z,53.80
2018-05-31T08:09:04.898Z,53.80
2018-05-31T08:11:32.628Z,53.80
2018-05-31T08:13:59.576Z,53.80
2018-05-31T08:16:26.534Z,53.70
2018-05-31T08:18:53.495Z,53.70
2018-05-31T08:21:21.279Z,53.70
2018-05-31T08:23:48.227Z,53.70
2018-05-31T08:26:15.333Z,53.70
2018-05-31T08:28:43.058Z,53.60
2018-05-31T08:31:10.013Z,53.60
2018-05-31T08:33:36.982Z,53.70
2018-05-31T08:36:03.934Z,53.60
2018-05-31T08:38:30.899Z,53.60
2018-05-31T08:40:58.622Z,53.60
2018-05-31T08:43:25.736Z,53.60
2018-05-31T08:45:52.667Z,53.60
2018-05-31T08:48:19.621Z,53.50
2018-05-31T08:50:46.588Z,53.50
2018-05-31T08:53:13.559Z,53.50
2018-05-31T08:55:40.524Z,53.50
2018-05-31T08:58:07.499Z,53.50
2018-05-31T09:00:34.444Z,53.40
2018-05-31T09:03:01.446Z,53.40
2018-05-31T09:05:28.421Z,53.50
2018-05-31T09:07:56.146Z,53.40
2018-05-31T09:10:23.213Z,53.30
2018-05-31T09:12:50.162Z,53.40
2018-05-31T09:15:17.915Z,53.40
2018-05-31T09:17:44.986Z,53.40
2018-05-31T09:20:11.938Z,53.40
2018-05-31T09:22:39.793Z,53.40
2018-05-31T09:25:07.447Z,53.40
2018-05-31T09:27:36.048Z,53.40
2018-05-31T09:30:02.999Z,53.40
2018-05-31T09:32:30.712Z,53.40
2018-05-31T09:34:57.798Z,53.40
2018-05-31T09:37:24.847Z,53.30
2018-05-31T09:39:52.552Z,53.30
2018-05-31T09:42:19.492Z,53.30
2018-05-31T09:44:46.441Z,53.30
2018-05-31T09:47:14.098Z,53.20
2018-05-31T09:49:41.198Z,53.90
2018-05-31T09:52:08.147Z,53.20
2018-05-31T09:54:35.105Z,53.30
2018-05-31T09:57:02.860Z,53.30
2018-05-31T09:59:29.810Z,53.30
2018-05-31T10:01:57.550Z,53.30
2018-05-31T10:04:24.514Z,53.30
2018-05-31T10:06:52.277Z,53.20
2018-05-31T10:09:20.004Z,53.30
2018-05-31T10:11:46.954Z,53.20
2018-05-31T10:14:13.928Z,53.20
2018-05-31T10:16:41.092Z,53.10
2018-05-31T10:19:08.051Z,53.20
2018-05-31T10:21:35.784Z,53.10
2018-05-31T10:24:02.931Z,53.10
2018-05-31T10:26:29.902Z,53.10
2018-05-31T10:28:56.851Z,53.10
2018-05-31T10:31:24.576Z,53.10
2018-05-31T10:33:51.538Z,53.10
2018-05-31T10:36:18.487Z,53.10
2018-05-31T10:38:45.452Z,53.10
2018-05-31T10:41:13.202Z,53.10
2018-05-31T10:43:40.138Z,53.10
2018-05-31T10:46:07.305Z,53.10
2018-05-31T10:48:34.247Z,53.00
2018-05-31T10:51:01.980Z,53.10
2018-05-31T10:53:28.940Z,53.10
2018-05-31T10:55:55.959Z,53.00
2018-05-31T10:58:22.910Z,53.10
2018-05-31T11:00:49.874Z,53.10
2018-05-31T11:03:16.829Z,53.10
2018-05-31T11:05:44.699Z,53.10
2018-05-31T11:08:11.638Z,53.00
2018-05-31T11:10:38.590Z,53.00
2018-05-31T11:13:05.560Z,53.00
2018-05-31T11:15:33.289Z,53.10
2018-05-31T11:18:00.241Z,53.10
2018-05-31T11:20:27.191Z,53.00
2018-05-31T11:22:54.143Z,53.00
2018-05-31T11:25:21.870Z,53.10
2018-05-31T11:27:48.949Z,53.00
2018-05-31T11:30:15.889Z,53.00
2018-05-31T11:32:42.863Z,53.00
2018-05-31T11:35:09.838Z,53.00
2018-05-31T11:37:36.954Z,53.00
2018-05-31T11:40:05.164Z,53.00
2018-05-31T11:42:32.128Z,53.00
2018-05-31T11:44:59.092Z,53.00
2018-05-31T11:47:28.059Z,53.00
2018-05-31T11:49:55.982Z,53.00
2018-05-31T11:52:22.942Z,53.00
2018-05-31T11:54:49.908Z,53.00
2018-05-31T11:57:16.878Z,53.00
2018-05-31T11:59:43.839Z,53.10
2018-05-31T12:02:10.808Z,53.10
2018-05-31T12:04:38.522Z,53.10
2018-05-31T12:07:05.613Z,53.10
2018-05-31T12:09:32.575Z,53.00
2018-05-31T12:11:59.532Z,53.00
2018-05-31T12:14:26.504Z,53.60
2018-05-31T12:16:53.589Z,53.00
2018-05-31T12:19:20.548Z,53.00
2018-05-31T12:21:48.277Z,53.00
2018-05-31T12:24:15.232Z,53.00
2018-05-31T12:26:42.401Z,53.00
2018-05-31T12:29:09.353Z,53.00
2018-05-31T12:31:37.164Z,53.00
2018-05-31T12:34:04.112Z,53.00
2018-05-31T12:36:31.207Z,53.00
2018-05-31T12:38:58.150Z,53.00
2018-05-31T12:41:25.877Z,53.00
2018-05-31T12:43:52.829Z,53.00
2018-05-31T12:46:19.798Z,52.90
2018-05-31T12:48:46.760Z,52.90
2018-05-31T12:51:14.488Z,53.00
2018-05-31T12:53:41.464Z,53.00
2018-05-31T12:56:08.606Z,53.00
2018-05-31T12:58:35.561Z,53.20
2018-05-31T13:01:02.503Z,52.90
2018-05-31T13:03:30.346Z,52.90
2018-05-31T13:05:57.369Z,52.90
2018-05-31T13:08:24.263Z,53.00
2018-05-31T13:10:51.982Z,53.00
2018-05-31T13:13:18.942Z,53.00
2018-05-31T13:15:46.483Z,53.00
2018-05-31T13:18:13.437Z,52.80
2018-05-31T13:20:40.383Z,52.50
2018-05-31T13:23:07.357Z,52.60
2018-05-31T13:25:35.079Z,53.20
2018-05-31T13:28:02.041Z,53.00
2018-05-31T13:30:29.019Z,53.20
2018-05-31T13:32:55.985Z,53.50
2018-05-31T13:35:22.947Z,53.40
2018-05-31T13:37:49.963Z,53.50
2018-05-31T13:40:17.698Z,53.50
2018-05-31T13:42:44.667Z,53.40
2018-05-31T13:45:11.637Z,53.40
2018-05-31T13:47:38.766Z,53.40
2018-05-31T13:50:06.867Z,53.40
2018-05-31T13:52:33.828Z,53.40
2018-05-31T13:55:00.795Z,53.40
2018-05-31T13:57:27.775Z,53.40
2018-05-31T13:59:54.733Z,53.40
2018-05-31T14:02:24.013Z,53.30
2018-05-31T14:04:50.944Z,53.20
2018-05-31T14:07:18.013Z,54.10
2018-05-31T14:09:45.755Z,54.40
2018-05-31T14:12:12.712Z,54.40
2018-05-31T14:14:39.678Z,55.20
2018-05-31T14:17:07.436Z,55.30
2018-05-31T14:19:34.394Z,55.30
2018-05-31T14:22:02.131Z,54.60
2018-05-31T14:24:29.086Z,54.60
2018-05-31T14:26:56.849Z,54.80
2018-05-31T14:29:23.859Z,54.70
2018-05-31T14:31:50.806Z,54.90
2018-05-31T14:34:17.779Z,55.10
2018-05-31T14:36:44.871Z,55.70
2018-05-31T14:39:11.833Z,55.10
2018-05-31T14:41:38.782Z,55.10
2018-05-31T14:44:05.741Z,55.10
2018-05-31T14:46:32.836Z,55.00
2018-05-31T14:48:59.764Z,55.60
2018-05-31T14:51:27.481Z,55.80
2018-05-31T14:53:54.429Z,55.80
2018-05-31T14:56:21.410Z,55.50
2018-05-31T14:58:48.370Z,55.50
2018-05-31T15:01:16.100Z,55.30
2018-05-31T15:03:43.063Z,55.30
2018-05-31T15:06:10.226Z,55.30
2018-05-31T15:08:37.170Z,55.20
2018-05-31T15:11:04.900Z,55.10
2018-05-31T15:13:31.851Z,55.10
2018-05-31T15:15:58.828Z,55.00
2018-05-31T15:18:25.771Z,54.90
2018-05-31T15:20:53.496Z,54.70
2018-05-31T15:23:20.479Z,54.70
2018-05-31T15:25:48.200Z,54.60
2018-05-31T15:28:15.150Z,54.60
2018-05-31T15:30:42.099Z,54.50
2018-05-31T15:33:09.055Z,54.60
2018-05-31T15:35:36.014Z,54.50
2018-05-31T15:38:04.480Z,54.40
2018-05-31T15:40:31.449Z,54.40
2018-05-31T15:42:58.413Z,54.50
2018-05-31T15:45:25.366Z,54.40
2018-05-31T15:47:52.531Z,54.40
2018-05-31T15:50:19.455Z,54.30
2018-05-31T15:52:47.170Z,54.40
2018-05-31T15:55:14.134Z,54.30
2018-05-31T15:57:41.116Z,54.30
2018-05-31T16:00:08.081Z,54.30
2018-05-31T16:02:35.103Z,54.30
2018-05-31T16:05:02.051Z,54.20
2018-05-31T16:07:29.071Z,54.20
2018-05-31T16:09:56.026Z,54.30
2018-05-31T16:12:23.750Z,54.50
2018-05-31T16:14:50.706Z,54.30
2018-05-31T16:17:18.490Z,54.20
2018-05-31T16:19:45.427Z,54.20
2018-05-31T16:22:12.386Z,54.20
2018-05-31T16:24:39.342Z,54.20
2018-05-31T16:27:06.484Z,54.10
2018-05-31T16:29:33.437Z,54.10
2018-05-31T16:32:01.174Z,54.10
2018-05-31T16:34:28.106Z,54.10
2018-05-31T16:36:55.082Z,54.10
2018-05-31T16:39:22.036Z,54.00
2018-05-31T16:41:49.768Z,54.30
2018-05-31T16:44:16.713Z,54.10
2018-05-31T16:46:43.692Z,54.30
2018-05-31T16:49:10.665Z,54.50
2018-05-31T16:51:38.384Z,54.70
2018-05-31T16:54:05.335Z,54.60
2018-05-31T16:56:33.100Z,54.50
2018-05-31T16:59:00.829Z,54.40
2018-05-31T17:01:27.782Z,54.40
2018-05-31T17:03:54.739Z,54.40
2018-05-31T17:06:21.693Z,54.20
2018-05-31T17:08:48.651Z,54.20
2018-05-31T17:11:16.371Z,54.30
2018-05-31T17:13:43.323Z,54.20
2018-05-31T17:16:10.313Z,54.10
2018-05-31T17:18:37.266Z,54.10
2018-05-31T17:21:05.010Z,54.20
2018-05-31T17:23:33.469Z,54.20
2018-05-31T17:26:00.544Z,54.20
2018-05-31T17:28:27.494Z,54.10
2018-05-31T17:30:55.220Z,54.40
2018-05-31T17:33:22.173Z,54.30
2018-05-31T17:35:49.123Z,54.20
2018-05-31T17:38:16.110Z,54.10
2018-05-31T17:40:43.840Z,54.10
2018-05-31T17:43:10.790Z,54.00
2018-05-31T17:45:38.225Z,54.00
2018-05-31T17:48:05.183Z,54.10
2018-05-31T17:50:32.277Z,54.00
2018-05-31T17:52:59.211Z,54.20
2018-05-31T17:55:26.935Z,54.30
2018-05-31T17:57:54.006Z,54.30
2018-05-31T18:00:20.980Z,54.30
2018-05-31T18:02:48.684Z,54.30
2018-05-31T18:05:15.644Z,54.30
2018-05-31T18:07:42.607Z,54.10
2018-05-31T18:10:09.593Z,54.00
2018-05-31T18:12:36.593Z,54.00
2018-05-31T18:15:03.539Z,54.00
2018-05-31T18:17:31.053Z,53.90
2018-05-31T18:19:57.967Z,54.00
2018-05-31T18:22:24.936Z,53.90
2018-05-31T18:24:51.900Z,53.90
2018-05-31T18:27:18.995Z,54.00
2018-05-31T18:29:45.991Z,54.00
2018-05-31T18:32:13.672Z,54.10
2018-05-31T18:34:40.643Z,54.10
2018-05-31T18:37:07.799Z,54.70
2018-05-31T18:39:34.758Z,54.00
2018-05-31T18:42:02.488Z,54.00
2018-05-31T18:44:29.445Z,54.00
2018-05-31T18:46:56.597Z,54.00
2018-05-31T18:49:23.556Z,54.00
2018-05-31T18:51:51.271Z,54.00
2018-05-31T18:54:18.236Z,54.00
2018-05-31T18:56:45.203Z,53.90
2018-05-31T18:59:12.161Z,53.90
2018-05-31T19:01:39.984Z,54.00
2018-05-31T19:04:06.891Z,53.90
2018-05-31T19:06:34.006Z,53.90
2018-05-31T19:09:00.968Z,53.90
2018-05-31T19:11:28.695Z,53.90
2018-05-31T19:13:55.648Z,53.90
2018-05-31T19:16:22.811Z,53.80
2018-05-31T19:18:49.774Z,53.90
2018-05-31T19:21:17.496Z,53.80
2018-05-31T19:23:44.568Z,53.80
2018-05-31T19:26:11.626Z,53.80
2018-05-31T19:28:38.571Z,53.80
2018-05-31T19:31:06.309Z,53.80
2018-05-31T19:33:33.274Z,53.80
2018-05-31T19:36:01.040Z,53.80
2018-05-31T19:38:28.015Z,53.80
2018-05-31T19:40:55.717Z,53.80
2018-05-31T19:43:22.672Z,53.80
2018-05-31T19:45:49.634Z,53.80
2018-05-31T19:48:16.621Z,53.80
2018-05-31T19:50:43.573Z,53.80
2018-05-31T19:53:10.542Z,53.80
2018-05-31T19:55:37.501Z,53.80
2018-05-31T19:58:04.455Z,53.80
2018-05-31T20:00:31.424Z,53.80
2018-05-31T20:02:59.159Z,53.80
2018-05-31T20:05:26.119Z,53.80
2018-05-31T20:07:53.878Z,53.80
2018-05-31T20:10:20.853Z,53.80
2018-05-31T20:12:48.560Z,53.80
2018-05-31T20:15:15.515Z,53.80
2018-05-31T20:17:42.492Z,53.70
2018-05-31T20:20:09.450Z,53.80
2018-05-31T20:22:37.174Z,53.70
2018-05-31T20:25:04.121Z,53.70
2018-05-31T20:27:31.293Z,53.70
2018-05-31T20:29:59.753Z,53.60
2018-05-31T20:32:27.572Z,53.60
2018-05-31T20:34:55.285Z,53.70
2018-05-31T20:37:23.773Z,53.80
2018-05-31T20:39:51.499Z,53.80
2018-05-31T20:42:18.458Z,53.80
2018-05-31T20:44:45.431Z,53.70
2018-05-31T20:47:12.583Z,53.80
2018-05-31T20:49:39.538Z,53.80
2018-05-31T20:52:07.265Z,53.30
2018-05-31T20:54:34.203Z,53.80
2018-05-31T20:57:01.178Z,53.80
2018-05-31T20:59:28.130Z,53.80
2018-05-31T21:01:55.869Z,53.80
2018-05-31T21:04:22.813Z,53.80
2018-05-31T21:06:49.795Z,53.80
2018-05-31T21:09:16.727Z,53.80
2018-05-31T21:11:43.694Z,53.90
2018-05-31T21:14:10.640Z,54.50
2018-05-31T21:16:38.378Z,53.90
2018-05-31T21:19:05.332Z,53.90
2018-05-31T21:21:32.307Z,53.90
2018-05-31T21:23:59.266Z,53.90
2018-05-31T21:26:26.363Z,53.90
2018-05-31T21:28:53.326Z,53.90
2018-05-31T21:31:21.044Z,53.90
2018-05-31T21:33:48.300Z,53.90
2018-05-31T21:36:15.339Z,53.90
2018-05-31T21:38:43.002Z,53.90
2018-05-31T21:41:09.984Z,53.90
2018-05-31T21:43:36.913Z,53.90
2018-05-31T21:46:03.862Z,53.90
2018-05-31T21:48:30.826Z,53.90
2018-05-31T21:50:57.774Z,53.80
2018-05-31T21:53:25.527Z,53.40
2018-05-31T21:55:52.602Z,53.40
2018-05-31T21:58:19.557Z,53.60
2018-05-31T22:00:46.533Z,53.30
2018-05-31T22:03:13.487Z,53.20
2018-05-31T22:05:40.477Z,53.20
2018-05-31T22:08:07.400Z,53.30
2018-05-31T22:10:34.349Z,53.30
2018-05-31T22:13:01.311Z,53.30
2018-05-31T22:15:28.296Z,53.40
2018-05-31T22:17:55.436Z,53.40
2018-05-31T22:20:22.364Z,53.50
2018-05-31T22:22:50.125Z,53.60
2018-05-31T22:25:17.057Z,53.60
2018-05-31T22:27:44.821Z,53.70
2018-05-31T22:30:11.767Z,53.70
2018-05-31T22:32:39.491Z,53.60
2018-05-31T22:35:06.451Z,53.60
2018-05-31T22:37:33.427Z,54.00
2018-05-31T22:40:00.374Z,54.10
2018-05-31T22:42:28.095Z,54.30
2018-05-31T22:44:55.064Z,54.30
2018-05-31T22:47:22.022Z,54.90
2018-05-31T22:49:48.958Z,54.30
2018-05-31T22:52:15.916Z,54.20
2018-05-31T22:54:42.871Z,53.80
2018-05-31T22:57:10.624Z,53.90
2018-05-31T22:59:37.625Z,53.90
2018-05-31T23:02:04.554Z,53.90
2018-05-31T23:04:31.506Z,54.00
2018-05-31T23:06:58.610Z,54.00
2018-05-31T23:09:25.567Z,54.10
2018-05-31T23:11:53.303Z,54.00
2018-05-31T23:14:20.279Z,54.00
2018-05-31T23:16:48.022Z,54.10
2018-05-31T23:19:16.500Z,54.00
2018-05-31T23:21:43.458Z,54.00
2018-05-31T23:24:10.397Z,54.00
2018-05-31T23:26:38.266Z,54.10
2018-05-31T23:29:05.220Z,54.10
2018-05-31T23:31:32.941Z,54.30
2018-05-31T23:33:59.889Z,54.30
2018-05-31T23:36:26.874Z,54.30
2018-05-31T23:38:53.830Z,54.40
2018-05-31T23:41:20.796Z,55.10
2018-05-31T23:43:47.751Z,54.40
2018-05-31T23:46:14.703Z,54.50
2018-05-31T23:48:41.658Z,54.50
2018-05-31T23:51:08.613Z,54.50
2018-05-31T23:53:35.558Z,54.60
2018-05-31T23:56:02.623Z,54.60
2018-05-31T23:58:29.576Z,54.30
